sensor_id;sensor_type;location;lat;lon;timestamp;P1;durP1;ratioP1;P2;durP2;ratioP2
19089;SDS011;9677;50.656;13.064;2022-10-15T00:00:11;10.20;;;9.30;;
19089;SDS011;9677;50.656;13.064;2022-10-15T00:02:41;10.00;;;9.10;;
19089;SDS011;9677;50.656;13.064;2022-10-15T00:05:09;10.10;;;9.20;;
19089;SDS011;9677;50.656;13.064;2022-10-15T00:07:38;10.40;;;9.50;;
19089;SDS011;9677;50.656;13.064;2022-10-15T00:10:07;9.90;;;9.00;;
19089;SDS011;9677;50.656;13.064;2022-10-15T00:12:36;10.17;;;9.27;;
19089;SDS011;9677;50.656;13.064;2022-10-15T00:15:05;10.50;;;9.50;;
19089;SDS011;9677;50.656;13.064;2022-10-15T00:17:37;9.97;;;9.07;;
19089;SDS011;9677;50.656;13.064;2022-10-15T00:20:07;10.30;;;9.30;;
19089;SDS011;9677;50.656;13.064;2022-10-15T00:22:38;15.63;;;9.53;;
19089;SDS011;9677;50.656;13.064;2022-10-15T00:25:07;10.53;;;9.50;;
19089;SDS011;9677;50.656;13.064;2022-10-15T00:27:36;10.07;;;9.17;;
19089;SDS011;9677;50.656;13.064;2022-10-15T00:30:05;10.13;;;9.13;;
19089;SDS011;9677;50.656;13.064;2022-10-15T00:32:35;10.37;;;9.37;;
19089;SDS011;9677;50.656;13.064;2022-10-15T00:35:06;10.30;;;9.30;;
19089;SDS011;9677;50.656;13.064;2022-10-15T00:37:35;10.57;;;9.57;;
19089;SDS011;9677;50.656;13.064;2022-10-15T00:40:04;10.60;;;9.60;;
19089;SDS011;9677;50.656;13.064;2022-10-15T00:42:35;10.57;;;9.57;;
19089;SDS011;9677;50.656;13.064;2022-10-15T00:45:03;10.30;;;9.33;;
19089;SDS011;9677;50.656;13.064;2022-10-15T00:47:36;10.00;;;9.10;;
19089;SDS011;9677;50.656;13.064;2022-10-15T00:50:10;11.20;;;9.67;;
19089;SDS011;9677;50.656;13.064;2022-10-15T00:52:44;10.37;;;9.37;;
19089;SDS011;9677;50.656;13.064;2022-10-15T00:55:23;11.33;;;9.87;;
19089;SDS011;9677;50.656;13.064;2022-10-15T00:57:57;10.63;;;9.60;;
19089;SDS011;9677;50.656;13.064;2022-10-15T01:00:30;10.40;;;9.40;;
19089;SDS011;9677;50.656;13.064;2022-10-15T01:03:00;10.83;;;9.83;;
19089;SDS011;9677;50.656;13.064;2022-10-15T01:05:29;10.27;;;9.20;;
19089;SDS011;9677;50.656;13.064;2022-10-15T01:07:59;10.83;;;9.83;;
19089;SDS011;9677;50.656;13.064;2022-10-15T01:10:28;10.47;;;9.43;;
19089;SDS011;9677;50.656;13.064;2022-10-15T01:13:07;10.20;;;9.27;;
19089;SDS011;9677;50.656;13.064;2022-10-15T01:15:45;10.30;;;9.30;;
19089;SDS011;9677;50.656;13.064;2022-10-15T01:18:23;10.67;;;9.67;;
19089;SDS011;9677;50.656;13.064;2022-10-15T01:21:00;10.70;;;9.70;;
19089;SDS011;9677;50.656;13.064;2022-10-15T01:27:00;10.50;;;9.50;;
19089;SDS011;9677;50.656;13.064;2022-10-15T01:35:53;10.30;;;9.13;;
19089;SDS011;9677;50.656;13.064;2022-10-15T01:38:35;10.40;;;9.50;;
19089;SDS011;9677;50.656;13.064;2022-10-15T01:41:15;10.00;;;9.10;;
19089;SDS011;9677;50.656;13.064;2022-10-15T01:43:55;10.57;;;9.60;;
19089;SDS011;9677;50.656;13.064;2022-10-15T01:47:07;10.33;;;9.23;;
19089;SDS011;9677;50.656;13.064;2022-10-15T01:49:41;10.37;;;9.43;;
19089;SDS011;9677;50.656;13.064;2022-10-15T01:52:13;10.53;;;9.53;;
19089;SDS011;9677;50.656;13.064;2022-10-15T01:54:45;10.03;;;9.13;;
19089;SDS011;9677;50.656;13.064;2022-10-15T01:57:16;10.43;;;9.47;;
19089;SDS011;9677;50.656;13.064;2022-10-15T01:59:47;10.20;;;9.30;;
19089;SDS011;9677;50.656;13.064;2022-10-15T02:02:17;10.20;;;9.20;;
19089;SDS011;9677;50.656;13.064;2022-10-15T02:04:46;10.10;;;9.20;;
19089;SDS011;9677;50.656;13.064;2022-10-15T02:07:24;9.97;;;9.07;;
19089;SDS011;9677;50.656;13.064;2022-10-15T02:10:04;10.37;;;9.47;;
19089;SDS011;9677;50.656;13.064;2022-10-15T02:12:43;10.10;;;9.20;;
19089;SDS011;9677;50.656;13.064;2022-10-15T02:15:34;10.43;;;9.47;;
19089;SDS011;9677;50.656;13.064;2022-10-15T02:18:11;10.20;;;9.30;;
19089;SDS011;9677;50.656;13.064;2022-10-15T02:20:47;10.57;;;9.57;;
19089;SDS011;9677;50.656;13.064;2022-10-15T02:23:24;10.63;;;9.47;;
19089;SDS011;9677;50.656;13.064;2022-10-15T02:26:00;10.27;;;9.27;;
19089;SDS011;9677;50.656;13.064;2022-10-15T02:28:33;10.03;;;9.13;;
19089;SDS011;9677;50.656;13.064;2022-10-15T02:31:06;10.00;;;9.10;;
19089;SDS011;9677;50.656;13.064;2022-10-15T02:33:38;10.03;;;9.13;;
19089;SDS011;9677;50.656;13.064;2022-10-15T02:36:07;10.00;;;9.10;;
19089;SDS011;9677;50.656;13.064;2022-10-15T02:38:36;10.07;;;9.17;;
19089;SDS011;9677;50.656;13.064;2022-10-15T02:41:10;10.30;;;9.30;;
19089;SDS011;9677;50.656;13.064;2022-10-15T02:43:39;10.20;;;9.27;;
19089;SDS011;9677;50.656;13.064;2022-10-15T02:46:10;10.03;;;9.07;;
19089;SDS011;9677;50.656;13.064;2022-10-15T02:48:44;10.03;;;9.13;;
19089;SDS011;9677;50.656;13.064;2022-10-15T02:51:16;9.80;;;8.90;;
19089;SDS011;9677;50.656;13.064;2022-10-15T02:53:45;10.00;;;9.10;;
19089;SDS011;9677;50.656;13.064;2022-10-15T02:56:13;10.20;;;9.30;;
19089;SDS011;9677;50.656;13.064;2022-10-15T02:58:42;9.77;;;8.90;;
19089;SDS011;9677;50.656;13.064;2022-10-15T03:01:11;11.73;;;9.73;;
19089;SDS011;9677;50.656;13.064;2022-10-15T03:03:40;9.87;;;9.00;;
19089;SDS011;9677;50.656;13.064;2022-10-15T03:06:10;10.20;;;9.30;;
19089;SDS011;9677;50.656;13.064;2022-10-15T03:08:39;10.20;;;9.30;;
19089;SDS011;9677;50.656;13.064;2022-10-15T03:11:10;9.90;;;9.00;;
19089;SDS011;9677;50.656;13.064;2022-10-15T03:13:38;10.20;;;9.20;;
19089;SDS011;9677;50.656;13.064;2022-10-15T03:16:08;10.20;;;9.30;;
19089;SDS011;9677;50.656;13.064;2022-10-15T03:18:41;9.93;;;8.93;;
19089;SDS011;9677;50.656;13.064;2022-10-15T03:21:12;9.83;;;8.93;;
19089;SDS011;9677;50.656;13.064;2022-10-15T03:23:40;10.23;;;9.33;;
19089;SDS011;9677;50.656;13.064;2022-10-15T03:26:15;9.83;;;8.93;;
19089;SDS011;9677;50.656;13.064;2022-10-15T03:28:44;9.90;;;9.00;;
19089;SDS011;9677;50.656;13.064;2022-10-15T03:31:24;9.57;;;8.77;;
19089;SDS011;9677;50.656;13.064;2022-10-15T03:33:56;10.00;;;9.10;;
19089;SDS011;9677;50.656;13.064;2022-10-15T03:36:26;10.30;;;9.30;;
19089;SDS011;9677;50.656;13.064;2022-10-15T03:38:55;9.80;;;8.90;;
19089;SDS011;9677;50.656;13.064;2022-10-15T03:41:24;9.80;;;8.90;;
19089;SDS011;9677;50.656;13.064;2022-10-15T03:43:53;10.03;;;9.03;;
19089;SDS011;9677;50.656;13.064;2022-10-15T03:46:22;9.97;;;9.07;;
19089;SDS011;9677;50.656;13.064;2022-10-15T03:48:51;10.10;;;9.20;;
19089;SDS011;9677;50.656;13.064;2022-10-15T03:51:20;10.33;;;9.40;;
19089;SDS011;9677;50.656;13.064;2022-10-15T03:54:01;9.63;;;8.83;;
19089;SDS011;9677;50.656;13.064;2022-10-15T03:56:36;9.77;;;8.87;;
19089;SDS011;9677;50.656;13.064;2022-10-15T03:59:20;9.83;;;8.93;;
19089;SDS011;9677;50.656;13.064;2022-10-15T04:01:56;10.20;;;9.30;;
19089;SDS011;9677;50.656;13.064;2022-10-15T04:04:26;9.90;;;8.90;;
19089;SDS011;9677;50.656;13.064;2022-10-15T04:06:55;9.90;;;9.00;;
19089;SDS011;9677;50.656;13.064;2022-10-15T04:09:25;10.10;;;9.20;;
19089;SDS011;9677;50.656;13.064;2022-10-15T04:12:14;9.77;;;8.87;;
19089;SDS011;9677;50.656;13.064;2022-10-15T04:14:44;9.80;;;8.90;;
19089;SDS011;9677;50.656;13.064;2022-10-15T04:17:12;9.97;;;9.07;;
19089;SDS011;9677;50.656;13.064;2022-10-15T04:19:43;9.93;;;9.03;;
19089;SDS011;9677;50.656;13.064;2022-10-15T04:22:14;9.97;;;9.07;;
19089;SDS011;9677;50.656;13.064;2022-10-15T04:24:52;10.00;;;9.10;;
19089;SDS011;9677;50.656;13.064;2022-10-15T04:27:25;9.97;;;9.07;;
19089;SDS011;9677;50.656;13.064;2022-10-15T04:30:04;9.53;;;8.70;;
19089;SDS011;9677;50.656;13.064;2022-10-15T04:32:36;11.33;;;9.00;;
19089;SDS011;9677;50.656;13.064;2022-10-15T04:35:05;9.50;;;8.70;;
19089;SDS011;9677;50.656;13.064;2022-10-15T04:37:57;9.80;;;8.93;;
19089;SDS011;9677;50.656;13.064;2022-10-15T04:40:39;9.70;;;8.80;;
19089;SDS011;9677;50.656;13.064;2022-10-15T04:43:08;9.47;;;8.67;;
19089;SDS011;9677;50.656;13.064;2022-10-15T04:45:36;9.43;;;8.63;;
19089;SDS011;9677;50.656;13.064;2022-10-15T04:48:05;9.90;;;8.90;;
19089;SDS011;9677;50.656;13.064;2022-10-15T04:50:34;9.53;;;8.73;;
19089;SDS011;9677;50.656;13.064;2022-10-15T04:53:19;9.50;;;8.70;;
19089;SDS011;9677;50.656;13.064;2022-10-15T04:55:52;9.50;;;8.70;;
19089;SDS011;9677;50.656;13.064;2022-10-15T04:58:27;10.10;;;9.00;;
19089;SDS011;9677;50.656;13.064;2022-10-15T05:00:58;9.30;;;8.50;;
19089;SDS011;9677;50.656;13.064;2022-10-15T05:03:32;9.33;;;8.50;;
19089;SDS011;9677;50.656;13.064;2022-10-15T05:06:07;9.60;;;8.80;;
19089;SDS011;9677;50.656;13.064;2022-10-15T05:08:38;9.60;;;8.70;;
19089;SDS011;9677;50.656;13.064;2022-10-15T05:11:19;9.67;;;8.87;;
19089;SDS011;9677;50.656;13.064;2022-10-15T05:13:51;9.33;;;8.53;;
19089;SDS011;9677;50.656;13.064;2022-10-15T05:16:23;9.60;;;8.70;;
19089;SDS011;9677;50.656;13.064;2022-10-15T05:18:56;9.50;;;8.70;;
19089;SDS011;9677;50.656;13.064;2022-10-15T05:21:27;9.73;;;8.83;;
19089;SDS011;9677;50.656;13.064;2022-10-15T05:24:00;9.83;;;8.93;;
19089;SDS011;9677;50.656;13.064;2022-10-15T05:26:51;9.60;;;8.70;;
19089;SDS011;9677;50.656;13.064;2022-10-15T05:29:21;9.63;;;8.83;;
19089;SDS011;9677;50.656;13.064;2022-10-15T05:31:50;9.50;;;8.70;;
19089;SDS011;9677;50.656;13.064;2022-10-15T05:34:22;9.90;;;9.00;;
19089;SDS011;9677;50.656;13.064;2022-10-15T05:36:57;9.43;;;8.63;;
19089;SDS011;9677;50.656;13.064;2022-10-15T05:39:26;9.90;;;9.00;;
19089;SDS011;9677;50.656;13.064;2022-10-15T05:41:56;11.60;;;9.00;;
19089;SDS011;9677;50.656;13.064;2022-10-15T05:44:34;9.70;;;8.80;;
19089;SDS011;9677;50.656;13.064;2022-10-15T05:47:02;9.90;;;9.00;;
19089;SDS011;9677;50.656;13.064;2022-10-15T05:49:33;9.87;;;8.97;;
19089;SDS011;9677;50.656;13.064;2022-10-15T05:52:08;9.50;;;8.70;;
19089;SDS011;9677;50.656;13.064;2022-10-15T05:54:59;9.57;;;8.77;;
19089;SDS011;9677;50.656;13.064;2022-10-15T05:57:29;10.10;;;9.20;;
19089;SDS011;9677;50.656;13.064;2022-10-15T06:00:02;9.70;;;8.80;;
19089;SDS011;9677;50.656;13.064;2022-10-15T06:02:38;9.80;;;8.90;;
19089;SDS011;9677;50.656;13.064;2022-10-15T06:05:06;10.20;;;9.20;;
19089;SDS011;9677;50.656;13.064;2022-10-15T06:07:35;9.77;;;8.90;;
19089;SDS011;9677;50.656;13.064;2022-10-15T06:10:04;9.80;;;8.90;;
19089;SDS011;9677;50.656;13.064;2022-10-15T06:12:35;9.70;;;8.80;;
19089;SDS011;9677;50.656;13.064;2022-10-15T06:15:05;10.00;;;9.10;;
19089;SDS011;9677;50.656;13.064;2022-10-15T06:17:34;9.90;;;8.90;;
19089;SDS011;9677;50.656;13.064;2022-10-15T06:20:03;10.00;;;9.10;;
19089;SDS011;9677;50.656;13.064;2022-10-15T06:22:33;9.70;;;8.80;;
19089;SDS011;9677;50.656;13.064;2022-10-15T06:25:06;10.30;;;9.30;;
19089;SDS011;9677;50.656;13.064;2022-10-15T06:27:37;9.93;;;9.03;;
19089;SDS011;9677;50.656;13.064;2022-10-15T06:30:07;9.83;;;8.80;;
19089;SDS011;9677;50.656;13.064;2022-10-15T06:32:36;9.50;;;8.70;;
19089;SDS011;9677;50.656;13.064;2022-10-15T06:35:05;9.60;;;8.80;;
19089;SDS011;9677;50.656;13.064;2022-10-15T06:37:34;9.37;;;8.57;;
19089;SDS011;9677;50.656;13.064;2022-10-15T06:40:03;9.43;;;8.60;;
19089;SDS011;9677;50.656;13.064;2022-10-15T06:42:42;9.97;;;9.07;;
19089;SDS011;9677;50.656;13.064;2022-10-15T06:45:10;9.50;;;8.70;;
19089;SDS011;9677;50.656;13.064;2022-10-15T06:47:43;9.80;;;8.97;;
19089;SDS011;9677;50.656;13.064;2022-10-15T06:50:12;9.60;;;8.80;;
19089;SDS011;9677;50.656;13.064;2022-10-15T06:52:41;9.80;;;8.90;;
19089;SDS011;9677;50.656;13.064;2022-10-15T06:55:09;9.80;;;8.90;;
19089;SDS011;9677;50.656;13.064;2022-10-15T06:57:38;9.70;;;8.80;;
19089;SDS011;9677;50.656;13.064;2022-10-15T07:00:09;9.70;;;8.80;;
19089;SDS011;9677;50.656;13.064;2022-10-15T07:02:39;9.57;;;8.77;;
19089;SDS011;9677;50.656;13.064;2022-10-15T07:05:08;9.33;;;8.53;;
19089;SDS011;9677;50.656;13.064;2022-10-15T07:07:37;9.80;;;8.90;;
19089;SDS011;9677;50.656;13.064;2022-10-15T07:10:05;9.57;;;8.77;;
19089;SDS011;9677;50.656;13.064;2022-10-15T07:12:39;9.80;;;8.90;;
19089;SDS011;9677;50.656;13.064;2022-10-15T07:15:09;9.30;;;8.50;;
19089;SDS011;9677;50.656;13.064;2022-10-15T07:17:38;9.90;;;9.00;;
19089;SDS011;9677;50.656;13.064;2022-10-15T07:20:06;9.80;;;8.90;;
19089;SDS011;9677;50.656;13.064;2022-10-15T07:22:36;9.50;;;8.70;;
19089;SDS011;9677;50.656;13.064;2022-10-15T07:25:04;9.20;;;8.40;;
19089;SDS011;9677;50.656;13.064;2022-10-15T07:27:35;9.53;;;8.63;;
19089;SDS011;9677;50.656;13.064;2022-10-15T07:30:05;9.70;;;8.60;;
19089;SDS011;9677;50.656;13.064;2022-10-15T07:32:36;9.10;;;8.30;;
19089;SDS011;9677;50.656;13.064;2022-10-15T07:35:05;9.20;;;8.40;;
19089;SDS011;9677;50.656;13.064;2022-10-15T07:37:35;9.00;;;8.27;;
19089;SDS011;9677;50.656;13.064;2022-10-15T07:40:03;9.30;;;8.50;;
19089;SDS011;9677;50.656;13.064;2022-10-15T07:42:33;9.03;;;8.27;;
19089;SDS011;9677;50.656;13.064;2022-10-15T07:45:02;9.13;;;8.40;;
19089;SDS011;9677;50.656;13.064;2022-10-15T07:47:32;9.30;;;8.50;;
19089;SDS011;9677;50.656;13.064;2022-10-15T07:50:02;9.30;;;8.50;;
19089;SDS011;9677;50.656;13.064;2022-10-15T07:52:31;9.07;;;8.33;;
19089;SDS011;9677;50.656;13.064;2022-10-15T07:54:59;9.50;;;8.67;;
19089;SDS011;9677;50.656;13.064;2022-10-15T07:57:28;9.30;;;8.50;;
19089;SDS011;9677;50.656;13.064;2022-10-15T07:59:56;9.40;;;8.60;;
19089;SDS011;9677;50.656;13.064;2022-10-15T08:02:25;8.90;;;8.20;;
19089;SDS011;9677;50.656;13.064;2022-10-15T08:04:53;9.27;;;8.47;;
19089;SDS011;9677;50.656;13.064;2022-10-15T08:07:23;9.47;;;8.67;;
19089;SDS011;9677;50.656;13.064;2022-10-15T08:09:52;9.23;;;8.43;;
19089;SDS011;9677;50.656;13.064;2022-10-15T08:12:25;9.27;;;8.47;;
19089;SDS011;9677;50.656;13.064;2022-10-15T08:14:54;9.30;;;8.50;;
19089;SDS011;9677;50.656;13.064;2022-10-15T08:17:22;9.03;;;8.30;;
19089;SDS011;9677;50.656;13.064;2022-10-15T08:19:51;10.10;;;9.10;;
19089;SDS011;9677;50.656;13.064;2022-10-15T08:22:20;9.20;;;8.40;;
19089;SDS011;9677;50.656;13.064;2022-10-15T08:24:55;9.20;;;8.40;;
19089;SDS011;9677;50.656;13.064;2022-10-15T08:27:24;9.40;;;8.60;;
19089;SDS011;9677;50.656;13.064;2022-10-15T08:29:55;9.00;;;8.30;;
19089;SDS011;9677;50.656;13.064;2022-10-15T08:32:24;9.20;;;8.40;;
19089;SDS011;9677;50.656;13.064;2022-10-15T08:34:52;9.07;;;8.37;;
19089;SDS011;9677;50.656;13.064;2022-10-15T08:37:21;9.20;;;8.30;;
19089;SDS011;9677;50.656;13.064;2022-10-15T08:39:50;8.97;;;8.17;;
19089;SDS011;9677;50.656;13.064;2022-10-15T08:42:20;8.63;;;7.93;;
19089;SDS011;9677;50.656;13.064;2022-10-15T08:44:58;8.90;;;8.20;;
19089;SDS011;9677;50.656;13.064;2022-10-15T08:47:35;8.90;;;8.10;;
19089;SDS011;9677;50.656;13.064;2022-10-15T08:50:11;9.00;;;8.20;;
19089;SDS011;9677;50.656;13.064;2022-10-15T08:52:53;8.93;;;8.20;;
19089;SDS011;9677;50.656;13.064;2022-10-15T08:55:27;8.90;;;8.20;;
19089;SDS011;9677;50.656;13.064;2022-10-15T08:58:02;9.03;;;8.23;;
19089;SDS011;9677;50.656;13.064;2022-10-15T09:00:40;9.37;;;8.40;;
19089;SDS011;9677;50.656;13.064;2022-10-15T09:03:16;8.87;;;8.10;;
19089;SDS011;9677;50.656;13.064;2022-10-15T09:06:03;8.80;;;8.10;;
19089;SDS011;9677;50.656;13.064;2022-10-15T09:08:43;8.87;;;8.17;;
19089;SDS011;9677;50.656;13.064;2022-10-15T09:11:21;8.80;;;8.10;;
19089;SDS011;9677;50.656;13.064;2022-10-15T09:14:01;8.60;;;7.90;;
19089;SDS011;9677;50.656;13.064;2022-10-15T09:16:34;8.63;;;7.93;;
19089;SDS011;9677;50.656;13.064;2022-10-15T09:19:10;9.00;;;8.20;;
19089;SDS011;9677;50.656;13.064;2022-10-15T09:21:43;8.80;;;8.10;;
19089;SDS011;9677;50.656;13.064;2022-10-15T09:24:15;8.70;;;8.00;;
19089;SDS011;9677;50.656;13.064;2022-10-15T09:26:50;8.60;;;7.90;;
19089;SDS011;9677;50.656;13.064;2022-10-15T09:29:30;8.87;;;8.10;;
19089;SDS011;9677;50.656;13.064;2022-10-15T09:32:08;9.17;;;8.37;;
19089;SDS011;9677;50.656;13.064;2022-10-15T09:34:44;8.80;;;8.10;;
19089;SDS011;9677;50.656;13.064;2022-10-15T09:37:21;8.80;;;8.07;;
19089;SDS011;9677;50.656;13.064;2022-10-15T09:40:00;9.30;;;8.50;;
19089;SDS011;9677;50.656;13.064;2022-10-15T09:42:44;8.60;;;7.90;;
19089;SDS011;9677;50.656;13.064;2022-10-15T09:45:15;8.90;;;8.20;;
19089;SDS011;9677;50.656;13.064;2022-10-15T09:47:44;9.30;;;8.30;;
19089;SDS011;9677;50.656;13.064;2022-10-15T09:50:13;8.90;;;8.20;;
19089;SDS011;9677;50.656;13.064;2022-10-15T09:52:48;8.80;;;8.10;;
19089;SDS011;9677;50.656;13.064;2022-10-15T09:55:36;8.93;;;8.20;;
19089;SDS011;9677;50.656;13.064;2022-10-15T09:58:11;8.67;;;7.97;;
19089;SDS011;9677;50.656;13.064;2022-10-15T10:00:53;8.80;;;8.10;;
19089;SDS011;9677;50.656;13.064;2022-10-15T10:03:31;9.03;;;8.30;;
19089;SDS011;9677;50.656;13.064;2022-10-15T10:06:04;8.70;;;8.00;;
19089;SDS011;9677;50.656;13.064;2022-10-15T10:08:45;8.80;;;8.10;;
19089;SDS011;9677;50.656;13.064;2022-10-15T10:11:19;9.07;;;8.27;;
19089;SDS011;9677;50.656;13.064;2022-10-15T10:13:49;8.90;;;8.10;;
19089;SDS011;9677;50.656;13.064;2022-10-15T10:16:23;8.80;;;8.10;;
19089;SDS011;9677;50.656;13.064;2022-10-15T10:19:03;9.27;;;8.47;;
19089;SDS011;9677;50.656;13.064;2022-10-15T10:21:39;9.10;;;8.30;;
19089;SDS011;9677;50.656;13.064;2022-10-15T10:24:17;8.90;;;8.20;;
19089;SDS011;9677;50.656;13.064;2022-10-15T10:26:50;8.60;;;7.90;;
19089;SDS011;9677;50.656;13.064;2022-10-15T10:29:20;8.87;;;8.13;;
19089;SDS011;9677;50.656;13.064;2022-10-15T10:32:10;8.60;;;7.80;;
19089;SDS011;9677;50.656;13.064;2022-10-15T10:34:45;8.80;;;8.00;;
19089;SDS011;9677;50.656;13.064;2022-10-15T10:37:18;8.50;;;7.80;;
19089;SDS011;9677;50.656;13.064;2022-10-15T10:39:51;8.80;;;8.10;;
19089;SDS011;9677;50.656;13.064;2022-10-15T10:42:23;8.90;;;8.10;;
19089;SDS011;9677;50.656;13.064;2022-10-15T10:45:16;8.60;;;7.90;;
19089;SDS011;9677;50.656;13.064;2022-10-15T10:47:49;8.73;;;8.03;;
19089;SDS011;9677;50.656;13.064;2022-10-15T10:50:28;8.60;;;7.90;;
19089;SDS011;9677;50.656;13.064;2022-10-15T10:53:10;8.83;;;8.10;;
19089;SDS011;9677;50.656;13.064;2022-10-15T10:55:47;8.60;;;7.90;;
19089;SDS011;9677;50.656;13.064;2022-10-15T10:58:23;8.70;;;8.00;;
19089;SDS011;9677;50.656;13.064;2022-10-15T11:00:56;8.60;;;7.90;;
19089;SDS011;9677;50.656;13.064;2022-10-15T11:03:33;8.70;;;8.00;;
19089;SDS011;9677;50.656;13.064;2022-10-15T11:06:08;8.70;;;8.00;;
19089;SDS011;9677;50.656;13.064;2022-10-15T11:08:59;8.60;;;7.90;;
19089;SDS011;9677;50.656;13.064;2022-10-15T11:11:41;8.60;;;7.90;;
19089;SDS011;9677;50.656;13.064;2022-10-15T11:14:20;8.50;;;7.80;;
19089;SDS011;9677;50.656;13.064;2022-10-15T11:17:00;8.90;;;8.20;;
19089;SDS011;9677;50.656;13.064;2022-10-15T11:19:39;8.63;;;7.93;;
19089;SDS011;9677;50.656;13.064;2022-10-15T11:22:38;8.80;;;8.10;;
19089;SDS011;9677;50.656;13.064;2022-10-15T11:25:20;8.50;;;7.80;;
19089;SDS011;9677;50.656;13.064;2022-10-15T11:28:03;8.50;;;7.80;;
19089;SDS011;9677;50.656;13.064;2022-10-15T11:30:58;8.50;;;7.80;;
19089;SDS011;9677;50.656;13.064;2022-10-15T11:33:43;8.53;;;7.83;;
19089;SDS011;9677;50.656;13.064;2022-10-15T11:36:34;8.70;;;8.00;;
19089;SDS011;9677;50.656;13.064;2022-10-15T11:39:18;8.50;;;7.80;;
19089;SDS011;9677;50.656;13.064;2022-10-15T11:42:12;8.60;;;7.90;;
19089;SDS011;9677;50.656;13.064;2022-10-15T11:44:57;8.50;;;7.80;;
19089;SDS011;9677;50.656;13.064;2022-10-15T11:47:45;8.50;;;7.80;;
19089;SDS011;9677;50.656;13.064;2022-10-15T11:50:25;8.93;;;8.13;;
19089;SDS011;9677;50.656;13.064;2022-10-15T11:53:03;8.60;;;7.90;;
19089;SDS011;9677;50.656;13.064;2022-10-15T11:56:00;8.37;;;7.67;;
19089;SDS011;9677;50.656;13.064;2022-10-15T11:58:32;8.80;;;8.10;;
19089;SDS011;9677;50.656;13.064;2022-10-15T12:01:08;8.70;;;7.90;;
19089;SDS011;9677;50.656;13.064;2022-10-15T12:03:49;8.37;;;7.67;;
19089;SDS011;9677;50.656;13.064;2022-10-15T12:06:21;8.50;;;7.80;;
19089;SDS011;9677;50.656;13.064;2022-10-15T12:08:55;8.70;;;8.00;;
19089;SDS011;9677;50.656;13.064;2022-10-15T12:11:27;8.70;;;8.00;;
19089;SDS011;9677;50.656;13.064;2022-10-15T12:14:12;8.67;;;7.97;;
19089;SDS011;9677;50.656;13.064;2022-10-15T12:16:53;8.47;;;7.80;;
19089;SDS011;9677;50.656;13.064;2022-10-15T12:19:33;8.53;;;7.83;;
19089;SDS011;9677;50.656;13.064;2022-10-15T12:22:08;8.40;;;7.70;;
19089;SDS011;9677;50.656;13.064;2022-10-15T12:24:52;8.70;;;8.00;;
19089;SDS011;9677;50.656;13.064;2022-10-15T12:27:23;8.50;;;7.80;;
19089;SDS011;9677;50.656;13.064;2022-10-15T12:32:53;8.40;;;7.70;;
19089;SDS011;9677;50.656;13.064;2022-10-15T12:40:58;8.77;;;8.00;;
19089;SDS011;9677;50.656;13.064;2022-10-15T12:43:31;8.77;;;7.97;;
19089;SDS011;9677;50.656;13.064;2022-10-15T12:46:03;8.80;;;8.10;;
19089;SDS011;9677;50.656;13.064;2022-10-15T12:48:35;8.70;;;8.00;;
19089;SDS011;9677;50.656;13.064;2022-10-15T13:06:14;8.77;;;7.97;;
19089;SDS011;9677;50.656;13.064;2022-10-15T13:08:54;8.37;;;7.67;;
19089;SDS011;9677;50.656;13.064;2022-10-15T13:11:31;8.43;;;7.70;;
19089;SDS011;9677;50.656;13.064;2022-10-15T13:14:13;8.80;;;8.10;;
19089;SDS011;9677;50.656;13.064;2022-10-15T13:16:58;8.50;;;7.80;;
19089;SDS011;9677;50.656;13.064;2022-10-15T13:19:31;8.60;;;7.90;;
19089;SDS011;9677;50.656;13.064;2022-10-15T13:22:06;8.80;;;8.00;;
19089;SDS011;9677;50.656;13.064;2022-10-15T13:24:50;8.60;;;7.90;;
19089;SDS011;9677;50.656;13.064;2022-10-15T13:27:20;8.50;;;7.80;;
19089;SDS011;9677;50.656;13.064;2022-10-15T13:29:53;8.50;;;7.80;;
19089;SDS011;9677;50.656;13.064;2022-10-15T13:32:24;8.70;;;8.00;;
19089;SDS011;9677;50.656;13.064;2022-10-15T13:34:56;8.53;;;7.83;;
19089;SDS011;9677;50.656;13.064;2022-10-15T13:37:28;8.63;;;7.93;;
19089;SDS011;9677;50.656;13.064;2022-10-15T13:39:59;8.70;;;8.00;;
19089;SDS011;9677;50.656;13.064;2022-10-15T13:42:34;8.60;;;7.90;;
19089;SDS011;9677;50.656;13.064;2022-10-15T13:45:10;8.90;;;8.20;;
19089;SDS011;9677;50.656;13.064;2022-10-15T13:47:46;8.40;;;7.70;;
19089;SDS011;9677;50.656;13.064;2022-10-15T13:50:18;8.57;;;7.87;;
19089;SDS011;9677;50.656;13.064;2022-10-15T13:52:51;8.60;;;7.90;;
19089;SDS011;9677;50.656;13.064;2022-10-15T13:55:25;8.80;;;8.00;;
19089;SDS011;9677;50.656;13.064;2022-10-15T13:57:58;8.50;;;7.80;;
19089;SDS011;9677;50.656;13.064;2022-10-15T14:00:30;8.60;;;7.90;;
19089;SDS011;9677;50.656;13.064;2022-10-15T14:03:05;8.83;;;8.10;;
19089;SDS011;9677;50.656;13.064;2022-10-15T14:05:43;8.70;;;8.00;;
19089;SDS011;9677;50.656;13.064;2022-10-15T14:08:14;9.00;;;8.20;;
19089;SDS011;9677;50.656;13.064;2022-10-15T14:10:49;8.37;;;7.70;;
19089;SDS011;9677;50.656;13.064;2022-10-15T14:13:20;9.03;;;8.23;;
19089;SDS011;9677;50.656;13.064;2022-10-15T14:15:58;9.20;;;8.40;;
19089;SDS011;9677;50.656;13.064;2022-10-15T14:18:39;8.70;;;8.00;;
19089;SDS011;9677;50.656;13.064;2022-10-15T14:21:15;8.80;;;8.00;;
19089;SDS011;9677;50.656;13.064;2022-10-15T14:23:46;8.90;;;8.10;;
19089;SDS011;9677;50.656;13.064;2022-10-15T14:26:21;8.87;;;8.07;;
19089;SDS011;9677;50.656;13.064;2022-10-15T14:28:51;8.90;;;8.13;;
19089;SDS011;9677;50.656;13.064;2022-10-15T14:31:27;9.07;;;8.27;;
19089;SDS011;9677;50.656;13.064;2022-10-15T14:36:56;8.90;;;8.10;;
19089;SDS011;9677;50.656;13.064;2022-10-15T14:39:26;9.00;;;8.20;;
19089;SDS011;9677;50.656;13.064;2022-10-15T14:41:57;8.77;;;8.00;;
19089;SDS011;9677;50.656;13.064;2022-10-15T14:44:40;8.83;;;8.10;;
19089;SDS011;9677;50.656;13.064;2022-10-15T14:47:14;9.00;;;8.20;;
19089;SDS011;9677;50.656;13.064;2022-10-15T14:49:49;8.90;;;8.10;;
19089;SDS011;9677;50.656;13.064;2022-10-15T14:52:21;8.77;;;8.00;;
19089;SDS011;9677;50.656;13.064;2022-10-15T14:54:56;8.63;;;7.93;;
19089;SDS011;9677;50.656;13.064;2022-10-15T14:57:30;9.00;;;8.20;;
19089;SDS011;9677;50.656;13.064;2022-10-15T15:00:08;9.00;;;8.20;;
19089;SDS011;9677;50.656;13.064;2022-10-15T15:02:46;9.00;;;8.20;;
19089;SDS011;9677;50.656;13.064;2022-10-15T15:05:19;9.10;;;8.30;;
19089;SDS011;9677;50.656;13.064;2022-10-15T15:07:50;9.00;;;8.20;;
19089;SDS011;9677;50.656;13.064;2022-10-15T15:10:19;9.10;;;8.20;;
19089;SDS011;9677;50.656;13.064;2022-10-15T15:12:49;8.57;;;7.87;;
19089;SDS011;9677;50.656;13.064;2022-10-15T15:15:21;8.60;;;7.90;;
19089;SDS011;9677;50.656;13.064;2022-10-15T15:17:52;8.80;;;8.10;;
19089;SDS011;9677;50.656;13.064;2022-10-15T15:20:21;8.90;;;8.10;;
19089;SDS011;9677;50.656;13.064;2022-10-15T15:22:52;9.10;;;8.20;;
19089;SDS011;9677;50.656;13.064;2022-10-15T15:25:23;8.70;;;8.00;;
19089;SDS011;9677;50.656;13.064;2022-10-15T15:27:56;8.80;;;8.10;;
19089;SDS011;9677;50.656;13.064;2022-10-15T15:30:26;8.60;;;7.90;;
19089;SDS011;9677;50.656;13.064;2022-10-15T15:32:58;8.97;;;8.20;;
19089;SDS011;9677;50.656;13.064;2022-10-15T15:35:29;8.73;;;8.03;;
19089;SDS011;9677;50.656;13.064;2022-10-15T15:38:04;8.80;;;8.00;;
19089;SDS011;9677;50.656;13.064;2022-10-15T15:40:34;9.03;;;8.23;;
19089;SDS011;9677;50.656;13.064;2022-10-15T15:43:03;8.77;;;8.00;;
19089;SDS011;9677;50.656;13.064;2022-10-15T15:45:31;8.80;;;8.10;;
19089;SDS011;9677;50.656;13.064;2022-10-15T15:48:02;8.70;;;7.90;;
19089;SDS011;9677;50.656;13.064;2022-10-15T15:50:31;8.63;;;7.93;;
19089;SDS011;9677;50.656;13.064;2022-10-15T15:53:00;8.70;;;8.00;;
19089;SDS011;9677;50.656;13.064;2022-10-15T15:55:29;8.83;;;8.13;;
19089;SDS011;9677;50.656;13.064;2022-10-15T15:57:58;8.90;;;8.10;;
19089;SDS011;9677;50.656;13.064;2022-10-15T16:00:27;8.70;;;8.00;;